createdAt,value
2024-05-09T00:02:52.645Z,102884.22
2024-05-09T00:07:54.325Z,102886.84
2024-05-09T00:12:56.008Z,102881.88
2024-05-09T00:17:57.783Z,102873.34
2024-05-09T00:22:59.545Z,102873.50
2024-05-09T00:28:01.331Z,102866.78
2024-05-09T00:33:05.165Z,102868.66
2024-05-09T00:38:08.106Z,102858.34
2024-05-09T00:43:14.571Z,102857.53
2024-05-09T00:48:19.856Z,102854.28
2024-05-09T00:53:24.095Z,102862.09
2024-05-09T00:58:28.963Z,102857.00
2024-05-09T01:03:30.753Z,102846.69
2024-05-09T01:08:32.583Z,102856.28
2024-05-09T01:13:34.343Z,102853.84
2024-05-09T01:18:36.123Z,102856.50
2024-05-09T01:23:37.958Z,102855.88
2024-05-09T01:28:39.912Z,102857.66
2024-05-09T01:33:42.899Z,102849.97
2024-05-09T01:38:44.686Z,102856.78
2024-05-09T01:43:46.398Z,102849.19
2024-05-09T01:48:48.157Z,102839.91
2024-05-09T01:53:50.038Z,102841.59
2024-05-09T01:58:51.708Z,102841.72
2024-05-09T02:03:53.485Z,102841.69
2024-05-09T02:08:55.242Z,102840.84
2024-05-09T02:13:56.976Z,102841.78
2024-05-09T02:18:58.859Z,102842.66
2024-05-09T02:24:00.887Z,102842.72
2024-05-09T02:29:02.821Z,102843.53
2024-05-09T02:34:04.800Z,102843.56
2024-05-09T02:39:06.599Z,102845.28
2024-05-09T02:44:08.262Z,102840.28
2024-05-09T02:49:10.100Z,102840.31
2024-05-09T02:54:11.856Z,102836.03
2024-05-09T02:59:13.595Z,102830.06
2024-05-09T03:04:15.743Z,102830.09
2024-05-09T03:09:17.457Z,102831.00
2024-05-09T03:14:19.348Z,102835.31
2024-05-09T03:19:21.163Z,102838.81
2024-05-09T03:24:23.045Z,102825.19
2024-05-09T03:29:24.915Z,102821.78
2024-05-09T03:34:26.742Z,102817.53
2024-05-09T03:39:28.446Z,102825.22
2024-05-09T03:44:30.168Z,102817.50
2024-05-09T03:49:31.898Z,102828.63
2024-05-09T03:54:34.895Z,102820.09
2024-05-09T03:59:36.576Z,102820.94
2024-05-09T04:04:41.014Z,102825.97
2024-05-09T04:09:42.709Z,102824.16
2024-05-09T04:14:44.331Z,102816.25
2024-05-09T04:19:46.034Z,102823.84
2024-05-09T04:24:48.203Z,102827.97
2024-05-09T04:29:49.861Z,102827.91
2024-05-09T04:34:51.550Z,102827.75
2024-05-09T04:39:53.230Z,102833.72
2024-05-09T04:44:58.338Z,102824.00
2024-05-09T04:50:00.450Z,102833.13
2024-05-09T04:55:02.322Z,102830.44
2024-05-09T05:00:11.531Z,102832.81
2024-05-09T05:05:16.456Z,102832.53
2024-05-09T05:10:25.303Z,102835.66
2024-05-09T05:15:31.087Z,102835.22
2024-05-09T05:20:33.922Z,102835.44
2024-05-09T05:25:36.342Z,102821.78
2024-05-09T05:30:39.204Z,102828.28
2024-05-09T05:35:42.306Z,102832.19
2024-05-09T05:40:44.344Z,102833.59
2024-05-09T05:45:46.739Z,102834.16
2024-05-09T05:50:48.426Z,102829.53
2024-05-09T05:55:50.226Z,102831.84
2024-05-09T06:00:52.020Z,102842.84
2024-05-09T06:05:53.806Z,102832.59
2024-05-09T06:10:55.575Z,102824.34
2024-05-09T06:15:57.337Z,102830.56
2024-05-09T06:20:59.077Z,102818.25
2024-05-09T06:26:00.873Z,102822.03
2024-05-09T06:31:03.114Z,102812.53
2024-05-09T06:36:05.535Z,102816.53
2024-05-09T06:41:07.244Z,102823.66
2024-05-09T06:46:08.866Z,102831.09
2024-05-09T06:51:10.641Z,102823.50
2024-05-09T06:56:12.331Z,102826.72
2024-05-09T07:01:14.084Z,102823.41
2024-05-09T07:06:15.852Z,102816.75
2024-05-09T07:22:34.358Z,102828.88
2024-05-09T07:27:36.033Z,102818.28
2024-05-09T07:32:56.386Z,102822.84
2024-05-09T07:38:17.138Z,102827.66
2024-05-09T07:43:37.454Z,102823.94
2024-05-09T07:50:35.605Z,102827.72
2024-05-09T07:54:38.424Z,102819.00
2024-05-09T07:59:58.997Z,102815.03
2024-05-09T08:05:19.500Z,102814.84
2024-05-09T08:10:39.846Z,102814.56
2024-05-09T08:16:00.735Z,102815.66
2024-05-09T08:21:21.178Z,102813.84
2024-05-09T08:26:41.551Z,102807.34
2024-05-09T08:32:02.080Z,102799.41
2024-05-09T08:37:25.997Z,102796.81
2024-05-09T08:43:27.289Z,102801.84
2024-05-09T08:48:49.750Z,102795.16
2024-05-09T08:54:10.380Z,102800.63
2024-05-09T08:59:44.634Z,102802.66
2024-05-09T09:05:13.702Z,102797.00
2024-05-09T09:10:34.712Z,102798.28
2024-05-09T09:15:55.258Z,102796.22
2024-05-09T09:21:15.700Z,102794.28
2024-05-09T09:26:36.538Z,102783.75
2024-05-09T09:32:04.369Z,102785.50
2024-05-09T09:37:29.497Z,102787.78
2024-05-09T09:42:50.210Z,102787.31
2024-05-09T09:48:10.839Z,102780.53
2024-05-09T09:53:33.286Z,102777.38
2024-05-09T09:58:57.323Z,102775.88
2024-05-09T10:04:18.319Z,102777.53
2024-05-09T10:09:39.361Z,102772.53
2024-05-09T10:15:07.582Z,102766.22
2024-05-09T10:20:39.953Z,102769.13
2024-05-09T10:26:02.052Z,102762.78
2024-05-09T10:31:22.537Z,102756.97
2024-05-09T10:36:26.548Z,102753.97
2024-05-09T10:41:46.931Z,102740.06
2024-05-09T10:46:48.741Z,102734.72
2024-05-09T10:52:09.187Z,102723.66
2024-05-09T10:57:38.129Z,102716.84
2024-05-09T11:02:58.763Z,102718.75
2024-05-09T11:08:23.643Z,102730.16
2024-05-09T11:13:43.881Z,102723.50
2024-05-09T11:19:04.618Z,102721.94
2024-05-09T11:24:25.160Z,102711.59
2024-05-09T11:29:45.342Z,102707.59
2024-05-09T11:35:06.308Z,102705.91
2024-05-09T11:40:32.369Z,102695.03
2024-05-09T11:45:56.810Z,102695.53
2024-05-09T11:51:17.266Z,102697.75
2024-05-09T11:56:37.839Z,102692.81
2024-05-09T12:01:58.412Z,102687.81
2024-05-09T12:07:20.386Z,102681.88
2024-05-09T12:12:40.844Z,102677.66
2024-05-09T12:18:03.761Z,102690.47
2024-05-09T12:23:25.253Z,102687.06
2024-05-09T12:28:45.833Z,102688.50
2024-05-09T12:34:06.294Z,102680.03
2024-05-09T12:39:38.827Z,102672.19
2024-05-09T12:44:40.890Z,102676.72
2024-05-09T12:50:01.067Z,102665.03
2024-05-09T12:55:33.789Z,102663.66
2024-05-09T13:00:43.417Z,102650.41
2024-05-09T13:05:45.951Z,102653.47
2024-05-09T13:10:48.193Z,102650.31
2024-05-09T13:16:08.407Z,102655.72
2024-05-09T13:21:10.199Z,102643.72
2024-05-09T13:26:11.888Z,102650.75
2024-05-09T13:31:13.596Z,102647.44
2024-05-09T13:36:15.314Z,102642.81
2024-05-09T13:41:16.997Z,102636.13
2024-05-09T13:46:18.770Z,102639.72
2024-05-09T13:51:20.557Z,102642.25
2024-05-09T13:56:22.226Z,102649.34
2024-05-09T14:01:24.924Z,102636.28
2024-05-09T14:06:26.675Z,102637.34
2024-05-09T14:11:28.370Z,102626.38
2024-05-09T14:16:31.132Z,102622.00
2024-05-09T14:21:32.919Z,102621.63
2024-05-09T14:26:34.708Z,102622.84
2024-05-09T14:31:38.752Z,102612.47
2024-05-09T14:36:41.453Z,102612.56
2024-05-09T14:41:43.138Z,102617.66
2024-05-09T14:46:44.899Z,102609.38
2024-05-09T14:51:47.921Z,102607.44
2024-05-09T14:56:49.689Z,102601.50
2024-05-09T15:01:51.513Z,102598.63
2024-05-09T15:06:53.293Z,102596.63
2024-05-09T15:11:54.974Z,102597.22
2024-05-09T15:16:56.676Z,102609.22
2024-05-09T15:21:58.441Z,102608.81
2024-05-09T15:27:00.290Z,102603.31
2024-05-09T15:32:02.034Z,102603.94
2024-05-09T15:37:04.029Z,102600.53
2024-05-09T15:42:05.833Z,102600.72
2024-05-09T15:47:07.559Z,102595.16
2024-05-09T15:52:09.363Z,102588.41
2024-05-09T15:57:11.961Z,102588.06
2024-05-09T16:02:13.703Z,102585.13
2024-05-09T16:07:15.576Z,102583.69
2024-05-09T16:12:17.259Z,102577.41
2024-05-09T16:17:19.113Z,102571.66
2024-05-09T16:22:20.947Z,102565.41
2024-05-09T16:27:22.679Z,102572.88
2024-05-09T16:32:24.420Z,102565.06
2024-05-09T16:37:29.412Z,102565.56
2024-05-09T16:42:31.411Z,102573.47
2024-05-09T16:47:33.505Z,102560.34
2024-05-09T16:52:35.237Z,102558.00
2024-05-09T16:57:37.016Z,102549.53
2024-05-09T17:02:38.789Z,102554.81
2024-05-09T17:07:40.999Z,102557.56
2024-05-09T17:12:42.904Z,102550.69
2024-05-09T17:17:44.656Z,102547.09
2024-05-09T17:22:46.367Z,102547.31
2024-05-09T17:27:48.147Z,102553.78
2024-05-09T17:32:49.829Z,102553.66
2024-05-09T17:37:51.589Z,102547.91
2024-05-09T17:42:53.438Z,102546.78
2024-05-09T17:47:55.498Z,102552.34
2024-05-09T17:52:57.379Z,102536.66
2024-05-09T17:57:59.182Z,102541.41
2024-05-09T18:03:00.899Z,102541.50
2024-05-09T18:08:02.562Z,102547.16
2024-05-09T18:13:04.489Z,102543.88
2024-05-09T18:18:06.960Z,102540.03
2024-05-09T18:23:08.985Z,102538.06
2024-05-09T18:28:10.863Z,102539.72
2024-05-09T18:33:13.099Z,102541.13
2024-05-09T18:38:15.031Z,102538.19
2024-05-09T18:43:16.963Z,102542.84
2024-05-09T18:48:19.046Z,102546.28
2024-05-09T18:53:20.870Z,102559.41
2024-05-09T18:58:22.700Z,102561.47
2024-05-09T19:03:24.708Z,102558.44
2024-05-09T19:08:26.456Z,102562.09
2024-05-09T19:13:28.193Z,102553.38
2024-05-09T19:18:30.103Z,102553.94
2024-05-09T19:23:35.323Z,102548.41
2024-05-09T19:28:39.485Z,102553.13
2024-05-09T19:33:41.275Z,102557.81
2024-05-09T19:38:42.993Z,102551.19
2024-05-09T19:43:44.642Z,102554.09
2024-05-09T19:48:46.506Z,102556.25
2024-05-09T19:53:48.249Z,102553.84
2024-05-09T19:58:49.912Z,102552.47
2024-05-09T20:03:51.893Z,102547.34
2024-05-09T20:08:53.583Z,102555.94
2024-05-09T20:13:55.262Z,102551.41
2024-05-09T20:18:57.152Z,102554.63
2024-05-09T20:23:58.873Z,102562.38
2024-05-09T20:29:01.117Z,102561.53
2024-05-09T20:34:02.818Z,102566.56
2024-05-09T20:39:04.649Z,102561.00
2024-05-09T20:44:06.288Z,102567.44
2024-05-09T20:49:08.066Z,102569.97
2024-05-09T20:54:09.903Z,102572.19
2024-05-09T20:59:12.088Z,102567.59
2024-05-09T21:04:13.989Z,102562.97
2024-05-09T21:09:15.757Z,102566.47
2024-05-09T21:14:17.428Z,102565.78
2024-05-09T21:19:19.095Z,102562.59
2024-05-09T21:24:20.764Z,102558.41
2024-05-09T21:29:22.392Z,102555.94
2024-05-09T21:34:24.152Z,102557.06
2024-05-09T21:39:25.945Z,102559.72
2024-05-09T21:44:29.566Z,102545.81
2024-05-09T21:49:31.322Z,102542.19
2024-05-09T21:54:33.075Z,102528.59
2024-05-09T21:59:34.913Z,102524.28
2024-05-09T22:04:36.700Z,102524.41
2024-05-09T22:09:38.442Z,102516.00
2024-05-09T22:14:40.174Z,102512.38
2024-05-09T22:19:46.272Z,102509.66
2024-05-09T22:24:48.015Z,102523.38
2024-05-09T22:29:49.683Z,102519.22
2024-05-09T22:34:51.349Z,102521.47
2024-05-09T22:39:53.069Z,102515.28
2024-05-09T22:44:54.823Z,102513.75
2024-05-09T22:49:56.515Z,102514.69
2024-05-09T22:54:58.880Z,102514.00
2024-05-09T23:00:00.589Z,102511.06
2024-05-09T23:05:02.588Z,102517.75
2024-05-09T23:10:10.835Z,102517.13
2024-05-09T23:15:15.031Z,102514.53
2024-05-09T23:20:25.818Z,102517.34
2024-05-09T23:25:31.782Z,102516.03
2024-05-09T23:30:38.488Z,102510.00
2024-05-09T23:35:42.542Z,102516.97
2024-05-09T23:40:44.309Z,102509.50
2024-05-09T23:45:46.092Z,102508.75
2024-05-09T23:50:47.780Z,102505.53
2024-05-09T23:55:49.475Z,102500.50
